Time;durP1;ratioP1;P1;durP2;ratioP2;P2;SDS_P1;SDS_P2;PMS_P1;PMS_P2;Temp;Humidity;BMP_temperature;BMP_pressure;BME280_temperature;BME280_humidity;BME280_pressure;Samples;Min_cycle;Max_cycle;Signal;HPM_P1;HPM_P2
2023/09/02 00:00:29;;;;;;;18.30;10.45;;;;;;;19.49;53.86;99639.00;5054733;28;20024;-66
2023/09/02 00:02:55;;;;;;;15.70;10.73;;;;;;;19.39;54.27;99630.28;5055979;28;20154;-66
2023/09/02 00:05:20;;;;;;;22.83;11.75;;;;;;;19.36;54.36;99641.53;5054710;28;20051;-66
2023/09/02 00:07:46;;;;;;;17.90;10.77;;;;;;;19.38;54.59;99641.34;5055508;28;20124;-65
2023/09/02 00:10:12;;;;;;;19.40;10.90;;;;;;;19.42;54.19;99639.94;5055293;28;20455;-65
2023/09/02 00:12:37;;;;;;;17.92;11.43;;;;;;;19.44;54.24;99632.44;5038377;28;20036;-66
2023/09/02 00:15:03;;;;;;;18.40;10.98;;;;;;;19.45;54.25;99643.13;5056372;28;20436;-65
2023/09/02 00:17:32;;;;;;;19.27;10.82;;;;;;;19.38;54.49;99638.63;5055797;28;20032;-65
2023/09/02 00:19:58;;;;;;;17.70;11.48;;;;;;;19.44;54.62;99640.59;5055363;28;20024;-66
2023/09/02 00:22:23;;;;;;;24.20;12.02;;;;;;;19.40;54.53;99625.72;5037949;28;20309;-65
2023/09/02 00:24:49;;;;;;;20.50;11.35;;;;;;;19.44;54.49;99637.88;5054961;28;20033;-65
2023/09/02 00:27:14;;;;;;;21.73;12.20;;;;;;;19.40;54.72;99631.16;5055378;28;20345;-65
2023/09/02 00:29:40;;;;;;;24.10;11.63;;;;;;;19.33;54.72;99631.91;5056069;28;20087;-66
2023/09/02 00:32:05;;;;;;;23.48;11.80;;;;;;;19.36;54.93;99625.22;5054894;28;20071;-65
2023/09/02 00:34:31;;;;;;;18.65;11.30;;;;;;;19.45;54.56;99626.00;5055552;28;20044;-64
2023/09/02 00:36:56;;;;;;;19.55;11.35;;;;;;;19.34;54.76;99625.44;5055735;28;20035;-65
2023/09/02 00:39:22;;;;;;;21.92;11.43;;;;;;;19.22;54.96;99599.78;5054501;28;20031;-65
2023/09/02 00:41:54;;;;;;;16.63;11.73;;;;;;;19.34;54.90;99633.59;5053929;28;20033;-65
2023/09/02 00:44:20;;;;;;;21.90;11.30;;;;;;;19.25;55.50;99631.13;5055635;28;20382;-65
2023/09/02 00:46:46;;;;;;;21.58;11.20;;;;;;;19.25;55.32;99629.25;5054184;28;20092;-64
2023/09/02 00:49:12;;;;;;;18.63;11.25;;;;;;;19.28;55.24;99634.31;5054611;28;20037;-65
2023/09/02 00:51:38;;;;;;;19.55;10.90;;;;;;;19.03;55.33;99593.84;5055297;28;20029;-66
2023/09/02 00:54:03;;;;;;;21.60;11.77;;;;;;;19.32;55.46;99630.22;5055355;28;20033;-65
2023/09/02 00:56:32;;;;;;;21.83;10.65;;;;;;;19.33;55.32;99626.47;5055258;28;20025;-65
2023/09/02 00:59:02;;;;;;;18.67;10.25;;;;;;;19.32;55.54;99630.22;5053882;28;20056;-66
2023/09/02 01:01:29;;;;;;;18.73;10.30;;;;;;;19.30;55.28;99623.28;5055186;28;20414;-64
2023/09/02 01:03:55;;;;;;;20.25;10.82;;;;;;;19.22;55.60;99618.75;5055174;28;20440;-64
2023/09/02 01:06:21;;;;;;;20.50;10.32;;;;;;;19.11;55.46;99583.97;5054594;28;20355;-65
2023/09/02 01:08:47;;;;;;;19.40;10.90;;;;;;;19.31;55.48;99620.38;5053903;28;20033;-65
2023/09/02 01:11:13;;;;;;;23.40;11.07;;;;;;;19.25;55.64;99615.69;5055102;28;20044;-66
2023/09/02 01:13:39;;;;;;;18.30;11.18;;;;;;;19.27;55.74;99618.22;5054591;28;20059;-64
2023/09/02 01:16:05;;;;;;;24.70;10.63;;;;;;;19.30;55.48;99618.69;5054708;28;20436;-65
2023/09/02 01:18:30;;;;;;;17.35;10.20;;;;;;;19.25;55.78;99614.84;5054766;28;20336;-66
2023/09/02 01:21:15;;;;;;;19.75;10.38;;;;;;;19.32;55.64;99618.50;5054647;28;20076;-65
2023/09/02 01:24:18;;;;;;;18.50;10.38;;;;;;;19.32;55.30;99615.78;5053803;28;20074;-65
2023/09/02 01:27:11;;;;;;;16.27;9.93;;;;;;;19.33;55.14;99610.19;5054606;28;20025;-65
2023/09/02 01:29:43;;;;;;;16.80;9.93;;;;;;;19.20;55.83;99624.41;5054124;28;20032;-65
2023/09/02 01:32:12;;;;;;;17.55;9.77;;;;;;;19.12;56.11;99616.31;5053911;28;20064;-65
2023/09/02 01:34:39;;;;;;;19.63;9.57;;;;;;;19.07;56.31;99618.75;5053993;28;20498;-65
2023/09/02 01:37:07;;;;;;;17.73;10.20;;;;;;;19.10;56.06;99623.81;5054389;28;20028;-64
2023/09/02 01:39:35;;;;;;;18.38;9.77;;;;;;;19.11;56.21;99630.91;5054431;28;20033;-66
2023/09/02 01:42:01;;;;;;;18.20;10.35;;;;;;;19.13;55.98;99623.44;5054503;28;20029;-65
2023/09/02 01:44:29;;;;;;;12.55;9.52;;;;;;;19.11;55.94;99638.22;5052627;28;20020;-65
2023/09/02 01:46:55;;;;;;;16.98;10.75;;;;;;;19.14;56.19;99654.13;5053574;28;20044;-66
2023/09/02 01:49:21;;;;;;;22.20;11.20;;;;;;;19.12;56.43;99648.06;5054159;28;20033;-64
2023/09/02 01:51:48;;;;;;;20.15;10.13;;;;;;;19.11;56.36;99640.94;5054319;28;20098;-66
2023/09/02 01:54:13;;;;;;;18.30;10.43;;;;;;;19.04;56.14;99619.94;5053805;28;20474;-65
2023/09/02 01:56:40;;;;;;;15.27;10.43;;;;;;;19.14;56.57;99629.72;5053934;28;20033;-66
2023/09/02 01:59:06;;;;;;;18.17;10.68;;;;;;;19.07;56.31;99622.31;5053781;28;20025;-65
2023/09/02 02:01:33;;;;;;;16.30;10.13;;;;;;;19.07;56.47;99630.47;5052731;28;20387;-65
2023/09/02 02:04:20;;;;;;;21.65;10.60;;;;;;;19.23;56.58;99639.44;5053087;28;20037;-69
2023/09/02 02:06:50;;;;;;;21.60;9.25;;;;;;;19.14;56.31;99625.13;5053737;28;20079;-68
2023/09/02 02:09:29;;;;;;;19.90;10.50;;;;;;;19.22;56.21;99629.63;5054034;28;20037;-65
2023/09/02 02:11:56;;;;;;;18.27;9.98;;;;;;;19.04;56.05;99605.56;5053275;28;20045;-66
2023/09/02 02:14:21;;;;;;;22.20;10.43;;;;;;;19.13;56.05;99633.47;5053770;28;20056;-65
2023/09/02 02:16:47;;;;;;;21.42;10.27;;;;;;;19.06;56.30;99633.34;5053184;28;20031;-67
2023/09/02 02:19:13;;;;;;;20.70;10.18;;;;;;;19.06;56.47;99634.22;5052275;28;20024;-66
2023/09/02 02:21:39;;;;;;;15.68;9.52;;;;;;;19.03;56.43;99634.53;5053718;28;20028;-67
2023/09/02 02:24:05;;;;;;;21.98;10.20;;;;;;;18.96;56.47;99620.00;5052206;28;20025;-66
2023/09/02 02:26:30;;;;;;;16.55;9.70;;;;;;;19.01;56.24;99622.22;5053291;28;20060;-66
2023/09/02 02:28:55;;;;;;;17.85;10.25;;;;;;;19.00;56.36;99620.53;5052680;28;20029;-65
2023/09/02 02:31:21;;;;;;;18.95;10.27;;;;;;;19.02;56.68;99627.44;5053163;28;20036;-67
2023/09/02 02:33:47;;;;;;;18.08;9.73;;;;;;;19.00;56.83;99621.34;5053548;28;20029;-66
2023/09/02 02:36:12;;;;;;;14.98;10.02;;;;;;;18.88;56.63;99606.53;5053266;28;20079;-65
2023/09/02 02:38:38;;;;;;;19.02;10.75;;;;;;;18.98;56.87;99628.84;5052750;28;20029;-66
2023/09/02 02:41:03;;;;;;;20.60;10.75;;;;;;;19.00;56.71;99626.78;5053508;28;20029;-66
2023/09/02 02:43:29;;;;;;;17.38;10.85;;;;;;;19.01;56.60;99633.88;5052790;28;20170;-66
2023/09/02 02:45:55;;;;;;;17.92;10.82;;;;;;;19.03;56.61;99625.59;5053164;28;20037;-65
2023/09/02 02:48:24;;;;;;;20.90;11.05;;;;;;;18.94;56.56;99619.34;5053686;28;20444;-66
2023/09/02 02:50:49;;;;;;;15.23;9.52;;;;;;;18.93;56.59;99615.81;5053399;28;20175;-68
2023/09/02 02:53:15;;;;;;;17.02;10.57;;;;;;;19.05;56.33;99632.53;5035527;28;20120;-66
2023/09/02 02:55:41;;;;;;;19.48;9.88;;;;;;;19.01;56.73;99614.91;5053136;28;20436;-67
2023/09/02 02:58:07;;;;;;;21.10;10.95;;;;;;;19.07;56.24;99622.31;5052608;28;20103;-65
2023/09/02 03:00:33;;;;;;;20.02;10.68;;;;;;;19.05;56.26;99613.53;5053414;28;20029;-67
2023/09/02 03:02:58;;;;;;;18.63;10.52;;;;;;;19.13;56.10;99617.19;5052752;28;20036;-66
2023/09/02 03:05:24;;;;;;;20.70;9.70;;;;;;;19.16;55.82;99623.06;5052837;28;20124;-65
2023/09/02 03:07:49;;;;;;;17.92;9.95;;;;;;;19.11;55.95;99624.66;5052239;28;20032;-70
2023/09/02 03:10:15;;;;;;;14.60;10.32;;;;;;;18.95;56.14;99596.63;5052730;28;20345;-69
2023/09/02 03:12:41;;;;;;;19.00;9.85;;;;;;;19.13;56.22;99620.72;5051001;28;20036;-68
2023/09/02 03:15:07;;;;;;;20.63;9.88;;;;;;;19.20;56.28;99618.97;5052549;28;20037;-70
2023/09/02 03:17:32;;;;;;;20.38;9.85;;;;;;;19.23;56.01;99623.16;5051195;28;20032;-69
2023/09/02 03:19:58;;;;;;;17.95;10.25;;;;;;;19.30;55.79;99620.56;5052560;28;20021;-68
2023/09/02 03:22:23;;;;;;;18.92;9.93;;;;;;;19.33;55.46;99606.63;5052792;28;20329;-69
2023/09/02 03:24:55;;;;;;;19.05;10.32;;;;;;;19.50;55.31;99615.41;5051546;28;20043;-70
2023/09/02 03:27:21;;;;;;;15.43;9.50;;;;;;;19.44;55.36;99617.03;5052886;28;20029;-69
2023/09/02 03:29:50;;;;;;;16.70;9.82;;;;;;;19.58;55.07;99623.47;5052351;28;20325;-70
2023/09/02 03:32:16;;;;;;;17.17;9.63;;;;;;;19.60;54.73;99610.56;5051638;28;20041;-71
2023/09/02 03:34:41;;;;;;;17.35;9.70;;;;;;;19.71;54.48;99611.09;5051279;28;20184;-69
2023/09/02 03:37:07;;;;;;;17.42;10.48;;;;;;;19.79;54.33;99619.16;5052128;28;20090;-71
2023/09/02 03:39:33;;;;;;;17.10;9.73;;;;;;;19.80;54.32;99615.41;5052149;28;20048;-70
2023/09/02 03:42:02;;;;;;;14.65;9.90;;;;;;;19.97;53.64;99617.91;5051378;28;20382;-70
2023/09/02 03:44:27;;;;;;;18.98;10.23;;;;;;;20.05;53.49;99615.09;5052484;28;20029;-68
2023/09/02 03:46:53;;;;;;;19.20;10.05;;;;;;;20.21;53.21;99614.03;5052616;28;20512;-70
2023/09/02 03:49:18;;;;;;;15.63;9.50;;;;;;;20.19;53.08;99603.34;5052354;28;20021;-70
2023/09/02 03:51:44;;;;;;;21.10;9.73;;;;;;;20.57;51.95;99617.72;5051882;28;20028;-71
2023/09/02 03:54:11;;;;;;;20.13;9.65;;;;;;;20.73;51.56;99624.78;5051861;28;20068;-70
2023/09/02 03:56:39;;;;;;;17.55;9.45;;;;;;;20.93;51.54;99625.81;5051764;28;20099;-70
2023/09/02 03:59:06;;;;;;;18.15;10.40;;;;;;;21.25;50.37;99627.31;5052462;28;20029;-68
2023/09/02 04:01:31;;;;;;;15.73;9.65;;;;;;;21.31;49.48;99593.81;5051828;28;20076;-69
2023/09/02 04:03:57;;;;;;;22.05;10.32;;;;;;;21.70;48.60;99602.44;5052138;28;20033;-65
2023/09/02 04:06:23;;;;;;;24.05;10.95;;;;;;;22.12;48.45;99619.59;5052724;28;20033;-69
2023/09/02 04:08:48;;;;;;;15.00;9.90;;;;;;;22.35;47.57;99621.97;5051956;28;20060;-69
2023/09/02 04:11:14;;;;;;;18.23;10.82;;;;;;;22.49;47.43;99627.47;5052029;28;20131;-70
2023/09/02 04:13:41;;;;;;;19.73;10.60;;;;;;;22.68;46.78;99630.44;5051888;28;20117;-68
2023/09/02 04:16:09;;;;;;;18.30;10.13;;;;;;;22.97;46.12;99623.75;5052046;28;20511;-69
2023/09/02 04:18:35;;;;;;;24.50;10.93;;;;;;;23.17;46.16;99625.63;5050945;28;20021;-69
2023/09/02 04:21:02;;;;;;;21.15;11.15;;;;;;;23.31;45.31;99596.44;5051860;28;20497;-68
2023/09/02 04:23:27;;;;;;;23.52;10.70;;;;;;;23.90;43.96;99626.50;5052216;28;20037;-69
2023/09/02 04:25:54;;;;;;;18.98;9.93;;;;;;;24.38;42.69;99622.50;5051677;28;20360;-70
2023/09/02 04:28:20;;;;;;;18.13;9.65;;;;;;;25.11;40.83;99598.38;5050000;28;20036;-70
2023/09/02 04:30:46;;;;;;;18.13;9.73;;;;;;;26.22;38.46;99624.97;5051142;28;20032;-70
2023/09/02 04:33:13;;;;;;;16.95;8.73;;;;;;;27.21;36.41;99635.72;5051099;28;20403;-69
2023/09/02 04:35:43;;;;;;;13.13;8.43;;;;;;;27.12;36.42;99617.91;5050721;28;20036;-70
2023/09/02 04:38:10;;;;;;;18.88;9.40;;;;;;;26.84;36.80;99641.38;5048791;28;20028;-70
2023/09/02 04:40:39;;;;;;;20.40;8.65;;;;;;;26.60;37.60;99646.84;5050833;28;20061;-70
2023/09/02 04:43:06;;;;;;;15.40;9.18;;;;;;;26.31;38.02;99649.38;5053280;28;20029;-70
2023/09/02 04:45:33;;;;;;;19.13;8.98;;;;;;;26.01;38.17;99634.53;5055162;28;20096;-69
2023/09/02 04:47:59;;;;;;;17.90;8.50;;;;;;;26.17;37.75;99630.31;5054581;28;20086;-70
2023/09/02 04:50:24;;;;;;;17.90;8.93;;;;;;;26.67;37.34;99638.50;5053908;28;20158;-70
2023/09/02 04:52:50;;;;;;;13.48;9.05;;;;;;;26.78;36.77;99638.53;5054443;28;20044;-70
2023/09/02 04:55:16;;;;;;;15.57;9.05;;;;;;;26.71;36.78;99635.03;5054931;28;20033;-70
2023/09/02 04:57:42;;;;;;;16.13;8.30;;;;;;;26.49;37.50;99627.31;5055044;28;20091;-70
2023/09/02 05:00:09;;;;;;;14.20;9.15;;;;;;;26.33;37.45;99628.81;5054579;28;20452;-65
2023/09/02 05:02:34;;;;;;;18.50;8.70;;;;;;;25.87;38.52;99631.09;5053867;28;20344;-65
2023/09/02 05:05:00;;;;;;;15.75;9.18;;;;;;;25.55;39.11;99644.94;5055218;28;20037;-65
2023/09/02 05:07:25;;;;;;;17.00;9.23;;;;;;;25.13;40.10;99644.72;5053849;28;20036;-66
2023/09/02 05:09:51;;;;;;;19.67;10.00;;;;;;;24.68;40.64;99645.66;5052941;28;20025;-66
2023/09/02 05:12:17;;;;;;;20.45;10.00;;;;;;;24.21;41.98;99647.63;5054164;28;20064;-66
2023/09/02 05:14:42;;;;;;;16.70;8.82;;;;;;;23.84;43.07;99647.34;5053801;28;20025;-66
2023/09/02 05:17:08;;;;;;;18.63;9.57;;;;;;;23.68;43.84;99653.28;5054305;28;20044;-66
2023/09/02 05:19:33;;;;;;;17.15;9.20;;;;;;;23.55;44.09;99646.78;5054065;28;20035;-64
2023/09/02 05:21:59;;;;;;;16.52;9.95;;;;;;;23.41;43.94;99639.69;5053695;28;20033;-65
2023/09/02 05:24:24;;;;;;;19.40;9.27;;;;;;;23.31;44.17;99657.34;5053631;28;20061;-66
2023/09/02 05:26:50;;;;;;;17.95;9.75;;;;;;;23.03;44.54;99617.44;5053405;28;20327;-65
2023/09/02 05:29:15;;;;;;;14.05;9.07;;;;;;;23.13;45.05;99651.66;5054508;28;20155;-65
2023/09/02 05:31:41;;;;;;;17.88;9.60;;;;;;;23.07;45.00;99651.44;5053826;28;20439;-66
2023/09/02 05:34:06;;;;;;;17.38;9.77;;;;;;;23.03;45.09;99644.72;5053706;28;20041;-64
2023/09/02 05:36:32;;;;;;;13.35;9.73;;;;;;;23.02;45.53;99650.38;5053627;28;20029;-65
2023/09/02 05:38:57;;;;;;;19.90;10.10;;;;;;;23.07;44.89;99628.78;5054306;28;20033;-70
2023/09/02 05:41:24;;;;;;;24.95;10.80;;;;;;;23.36;44.60;99652.06;5053133;28;20029;-66
2023/09/02 05:43:50;;;;;;;15.38;10.15;;;;;;;23.57;44.21;99658.34;5053938;28;20025;-66
2023/09/02 05:46:16;;;;;;;17.33;10.35;;;;;;;23.83;43.79;99659.31;5054402;28;20139;-66
2023/09/02 05:48:41;;;;;;;20.70;10.27;;;;;;;24.12;42.82;99657.16;5054066;28;20495;-67
2023/09/02 05:51:07;;;;;;;18.55;10.18;;;;;;;24.28;42.90;99653.09;5054033;28;20037;-66
2023/09/02 05:53:33;;;;;;;18.42;10.40;;;;;;;24.17;42.40;99618.19;5053990;28;20053;-66
2023/09/02 05:55:58;;;;;;;19.52;9.95;;;;;;;24.39;42.23;99651.56;5053007;28;20103;-66
2023/09/02 05:58:26;;;;;;;22.15;10.68;;;;;;;24.49;42.63;99651.06;5053399;28;20032;-67
2023/09/02 06:00:52;;;;;;;18.25;9.95;;;;;;;24.55;41.87;99646.59;5034302;28;20033;-67
2023/09/02 06:03:17;;;;;;;18.33;11.27;;;;;;;24.63;41.93;99651.81;5033049;28;20116;-67
2023/09/02 06:05:43;;;;;;;21.83;10.27;;;;;;;24.68;41.64;99656.63;5033684;28;20025;-66
2023/09/02 06:08:09;;;;;;;16.90;9.93;;;;;;;24.78;41.91;99655.09;5033991;28;20040;-65
2023/09/02 06:10:35;;;;;;;17.80;10.77;;;;;;;24.99;41.53;99666.72;5039063;28;20099;-66
2023/09/02 06:13:01;;;;;;;23.02;10.35;;;;;;;25.25;40.68;99658.53;5052576;28;20045;-66
2023/09/02 06:15:26;;;;;;;20.65;10.63;;;;;;;25.45;40.64;99661.91;5052541;28;20032;-66
2023/09/02 06:17:52;;;;;;;18.30;10.20;;;;;;;25.53;40.12;99657.22;5053496;28;20064;-66
2023/09/02 06:20:20;;;;;;;23.63;10.82;;;;;;;25.55;40.37;99652.34;5053914;28;20386;-66
2023/09/02 06:22:46;;;;;;;20.83;11.05;;;;;;;25.42;40.71;99667.81;5053386;28;20320;-66
2023/09/02 06:25:12;;;;;;;20.77;10.18;;;;;;;25.10;40.98;99661.63;5052697;28;20452;-66
2023/09/02 06:27:38;;;;;;;22.13;10.88;;;;;;;24.80;41.57;99669.41;5053288;28;20032;-66
2023/09/02 06:30:04;;;;;;;19.00;10.50;;;;;;;24.87;41.43;99674.00;5053582;28;20032;-65
2023/09/02 06:32:31;;;;;;;19.38;11.07;;;;;;;25.14;40.64;99676.53;5053504;28;20044;-66
2023/09/02 06:34:57;;;;;;;22.23;10.20;;;;;;;25.31;40.07;99676.78;5052887;28;20029;-66
2023/09/02 06:37:24;;;;;;;23.95;10.65;;;;;;;25.37;40.14;99682.22;5052561;28;20024;-68
2023/09/02 06:39:56;;;;;;;21.30;10.95;;;;;;;25.41;40.37;99673.53;5053467;28;20029;-67
2023/09/02 06:42:22;;;;;;;27.10;10.85;;;;;;;25.45;39.68;99686.59;5053060;28;20033;-67
2023/09/02 06:44:53;;;;;;;20.42;11.15;;;;;;;25.59;39.81;99687.31;5052620;28;20427;-67
2023/09/02 06:47:18;;;;;;;18.80;10.35;;;;;;;25.57;39.45;99689.44;5052554;28;20112;-66
2023/09/02 06:49:44;;;;;;;27.65;10.43;;;;;;;25.68;39.14;99678.78;5051574;28;20460;-66
2023/09/02 06:52:10;;;;;;;26.15;10.88;;;;;;;25.85;39.54;99696.31;5053205;28;20040;-66
2023/09/02 06:54:35;;;;;;;20.48;10.55;;;;;;;26.04;38.66;99696.28;5052854;28;20029;-66
2023/09/02 06:57:01;;;;;;;18.65;10.57;;;;;;;26.22;38.16;99685.34;5051499;28;20033;-66
2023/09/02 06:59:26;;;;;;;24.67;10.55;;;;;;;26.48;38.27;99702.50;5052797;28;20029;-67
2023/09/02 07:01:52;;;;;;;22.08;10.82;;;;;;;26.80;37.92;99707.78;5052267;28;20098;-69
2023/09/02 07:04:18;;;;;;;24.73;11.10;;;;;;;27.15;36.72;99692.47;5050853;28;20359;-67
2023/09/02 07:06:44;;;;;;;21.60;11.13;;;;;;;27.47;35.99;99705.03;5051407;28;20064;-66
2023/09/02 07:09:10;;;;;;;22.08;10.95;;;;;;;27.49;36.35;99709.22;5051672;28;20033;-65
2023/09/02 07:11:36;;;;;;;22.02;10.75;;;;;;;27.30;36.72;99683.75;5051856;28;20402;-66
2023/09/02 07:14:02;;;;;;;21.60;11.20;;;;;;;27.32;36.72;99709.09;5034357;28;20180;-67
2023/09/02 07:16:28;;;;;;;19.83;10.38;;;;;;;27.19;36.58;99717.56;5052107;28;20144;-67
2023/09/02 07:18:54;;;;;;;26.55;10.68;;;;;;;27.00;36.66;99703.91;5052340;28;20041;-67
2023/09/02 07:21:23;;;;;;;19.52;10.63;;;;;;;26.84;36.80;99699.88;5052141;28;20037;-67
2023/09/02 07:23:49;;;;;;;24.10;10.48;;;;;;;27.26;36.64;99715.56;5050813;28;20112;-67
2023/09/02 07:26:15;;;;;;;26.23;10.27;;;;;;;27.65;36.39;99720.63;5051986;28;20025;-67
2023/09/02 07:28:42;;;;;;;32.33;10.60;;;;;;;27.93;36.36;99719.84;5052085;28;20036;-65
2023/09/02 07:31:09;;;;;;;29.27;10.10;;;;;;;27.91;35.67;99702.75;5052463;28;20025;-66
2023/09/02 07:33:36;;;;;;;22.15;10.70;;;;;;;28.15;35.24;99721.13;5051471;28;20029;-66
2023/09/02 07:36:10;;;;;;;25.17;10.63;;;;;;;28.30;35.51;99717.88;5050790;28;20040;-65
2023/09/02 07:38:36;;;;;;;22.83;10.20;;;;;;;28.22;35.48;99717.22;5051840;28;20120;-66
2023/09/02 07:41:01;;;;;;;21.40;9.93;;;;;;;28.04;35.94;99718.16;5052017;28;20037;-66
2023/09/02 07:43:27;;;;;;;23.65;9.80;;;;;;;27.75;36.01;99717.25;5051349;28;20044;-66
2023/09/02 07:45:54;;;;;;;28.60;10.57;;;;;;;27.26;37.35;99712.81;5051354;28;20044;-66
2023/09/02 07:48:19;;;;;;;18.83;9.90;;;;;;;26.76;37.51;99716.72;5051311;28;20025;-66
2023/09/02 07:50:45;;;;;;;22.10;9.32;;;;;;;26.33;38.28;99711.16;5030934;28;20059;-67
2023/09/02 07:53:10;;;;;;;16.98;8.90;;;;;;;25.96;39.54;99724.03;5036407;28;20444;-68
2023/09/02 07:55:36;;;;;;;28.58;10.75;;;;;;;25.60;39.66;99727.38;5051426;28;20032;-65
2023/09/02 07:58:03;;;;;;;25.60;10.45;;;;;;;25.44;40.61;99733.38;5052215;28;20037;-67
2023/09/02 08:00:29;;;;;;;24.77;10.43;;;;;;;25.30;40.69;99725.25;5051746;28;20359;-66
2023/09/02 08:02:55;;;;;;;27.65;9.82;;;;;;;25.15;40.87;99706.44;5034007;28;20049;-67
2023/09/02 08:05:20;;;;;;;23.65;10.40;;;;;;;25.38;41.34;99724.16;5051063;28;20101;-67
2023/09/02 08:07:46;;;;;;;21.13;10.55;;;;;;;25.42;41.32;99735.50;5051748;28;20398;-66
2023/09/02 08:10:11;;;;;;;28.90;10.73;;;;;;;25.33;41.92;99716.63;5051961;28;20111;-66
2023/09/02 08:12:39;;;;;;;16.73;9.63;;;;;;;25.20;42.01;99741.38;5050803;28;20044;-66
2023/09/02 08:15:05;;;;;;;24.50;11.10;;;;;;;24.89;42.82;99748.56;5050268;28;20037;-67
2023/09/02 08:17:37;;;;;;;21.08;10.93;;;;;;;24.71;43.57;99750.09;5053128;28;20037;-66
2023/09/02 08:20:03;;;;;;;22.35;11.93;;;;;;;24.41;44.31;99745.19;5054554;28;20036;-68
2023/09/02 08:22:31;;;;;;;23.35;11.55;;;;;;;24.31;44.50;99756.59;5053866;28;20394;-66
2023/09/02 08:24:56;;;;;;;20.23;11.70;;;;;;;24.16;45.14;99762.34;5056351;28;20462;-67
2023/09/02 08:27:24;;;;;;;17.55;11.60;;;;;;;24.02;45.65;99761.53;5056076;28;20031;-68
2023/09/02 08:29:49;;;;;;;24.50;12.32;;;;;;;23.80;46.38;99750.81;5055462;28;20384;-67
2023/09/02 08:32:15;;;;;;;23.05;12.32;;;;;;;23.76;46.54;99765.97;5055535;28;20153;-69
2023/09/02 08:34:41;;;;;;;17.90;11.68;;;;;;;23.69;46.63;99773.31;5056129;28;20029;-66
2023/09/02 08:37:06;;;;;;;28.42;12.15;;;;;;;23.61;47.05;99766.16;5055341;28;20060;-67
2023/09/02 08:39:32;;;;;;;25.63;12.10;;;;;;;23.51;47.63;99766.63;5037577;28;20098;-66
2023/09/02 08:41:58;;;;;;;20.77;12.63;;;;;;;23.49;48.02;99779.63;5054734;28;20025;-67
2023/09/02 08:44:27;;;;;;;20.45;12.13;;;;;;;23.48;48.19;99777.13;5054157;28;20072;-67
2023/09/02 08:46:54;;;;;;;26.10;12.88;;;;;;;23.32;49.26;99783.84;5055812;28;20040;-66
2023/09/02 08:49:20;;;;;;;20.30;13.00;;;;;;;23.21;48.76;99788.84;5054034;28;20177;-66
2023/09/02 08:51:46;;;;;;;18.67;13.10;;;;;;;23.15;48.77;99783.34;5055135;28;20043;-66
2023/09/02 08:54:17;;;;;;;17.88;12.95;;;;;;;23.16;50.11;99782.34;5055417;28;20040;-67
2023/09/02 08:56:44;;;;;;;23.02;13.45;;;;;;;23.06;49.83;99771.81;5054199;28;20033;-67
2023/09/02 08:59:10;;;;;;;23.23;13.48;;;;;;;23.13;50.47;99785.44;5054940;28;20047;-67
2023/09/02 09:01:46;;;;;;;20.30;13.70;;;;;;;23.24;51.10;99793.03;5054006;28;20451;-66
2023/09/02 09:04:15;;;;;;;27.75;14.40;;;;;;;22.97;51.41;99775.78;5055144;28;20032;-68
2023/09/02 09:06:41;;;;;;;28.02;14.80;;;;;;;22.93;52.51;99791.75;5055239;28;20106;-69
2023/09/02 09:09:11;;;;;;;22.88;14.13;;;;;;;22.89;52.69;99806.81;5054583;28;20367;-67
2023/09/02 09:11:44;;;;;;;29.80;15.60;;;;;;;22.85;52.44;99800.09;5054417;28;20443;-66
2023/09/02 09:14:17;;;;;;;26.85;15.27;;;;;;;22.76;53.23;99807.63;5053558;28;20495;-66
2023/09/02 09:16:43;;;;;;;20.67;15.35;;;;;;;22.64;53.56;99810.94;5054583;28;20029;-66
2023/09/02 09:19:09;;;;;;;21.20;15.18;;;;;;;22.62;53.75;99814.91;5053895;28;20449;-66
2023/09/02 09:21:35;;;;;;;26.50;16.17;;;;;;;22.60;54.21;99814.28;5054592;28;20061;-68
2023/09/02 09:24:02;;;;;;;28.25;16.35;;;;;;;22.53;54.48;99819.69;5053792;28;20087;-67
2023/09/02 09:26:30;;;;;;;22.63;15.75;;;;;;;22.54;55.23;99820.56;5054419;28;20075;-66
2023/09/02 09:28:58;;;;;;;27.02;15.68;;;;;;;22.59;54.63;99828.97;5053070;28;20360;-66
2023/09/02 09:31:25;;;;;;;23.60;17.35;;;;;;;22.61;54.74;99830.47;5053785;28;20101;-67
2023/09/02 09:33:58;;;;;;;28.58;16.77;;;;;;;22.55;54.82;99808.59;5054134;28;20447;-67
2023/09/02 09:36:29;;;;;;;21.92;16.23;;;;;;;22.78;53.95;99824.63;5054558;28;20132;-66
2023/09/02 09:39:03;;;;;;;31.58;16.67;;;;;;;22.80;54.81;99833.50;5053459;28;20029;-66
2023/09/02 09:41:28;;;;;;;27.98;16.30;;;;;;;22.74;54.73;99832.41;5054094;28;20029;-66
2023/09/02 09:44:10;;;;;;;26.23;16.65;;;;;;;22.87;55.43;99839.81;5053606;28;20043;-67
2023/09/02 09:46:56;;;;;;;26.70;16.77;;;;;;;22.90;54.56;99836.66;5052992;28;20061;-67
2023/09/02 09:49:24;;;;;;;;;;;;;;;23.21;52.59;99845.34;5053053;28;20118;-67
2023/09/02 09:51:59;;;;;;;27.13;17.25;;;;;;;22.89;54.93;99842.31;5054392;28;20054;-66
2023/09/02 09:54:39;;;;;;;26.67;17.38;;;;;;;22.98;55.98;99845.69;5052750;28;20116;-66
2023/09/02 09:57:07;;;;;;;30.20;17.60;;;;;;;22.83;56.04;99854.06;5053104;28;20139;-67
2023/09/02 09:59:34;;;;;;;39.80;20.13;;;;;;;22.66;55.99;99848.94;5052468;28;20060;-66
2023/09/02 10:02:01;;;;;;;32.47;19.27;;;;;;;22.36;56.80;99852.75;5054221;28;20474;-65
2023/09/02 10:04:28;;;;;;;32.85;21.17;;;;;;;22.03;56.39;99819.81;5053402;28;20162;-65
2023/09/02 10:07:01;;;;;;;34.00;18.23;;;;;;;22.20;57.26;99856.66;5053650;28;20021;-65
2023/09/02 10:09:41;;;;;;;28.23;18.45;;;;;;;22.15;57.41;99845.47;5053907;28;20033;-65
2023/09/02 10:12:15;;;;;;;31.00;18.30;;;;;;;22.11;57.16;99860.56;5053176;28;20432;-66
2023/09/02 10:14:47;;;;;;;31.67;19.37;;;;;;;22.18;58.13;99855.16;5052065;28;20398;-67
2023/09/02 10:17:14;;;;;;;28.95;18.30;;;;;;;22.28;57.44;99863.00;5053345;28;20021;-65
2023/09/02 10:19:40;;;;;;;28.35;17.70;;;;;;;22.44;57.21;99857.22;5053387;28;20105;-65
2023/09/02 10:22:07;;;;;;;24.27;17.52;;;;;;;22.45;57.29;99828.03;5052288;28;20025;-65
2023/09/02 10:24:35;;;;;;;31.27;17.60;;;;;;;22.82;56.14;99864.16;5052905;28;20032;-66
2023/09/02 10:27:07;;;;;;;29.05;18.35;;;;;;;22.99;55.01;99850.13;5053289;28;20558;-66
2023/09/02 10:29:36;;;;;;;31.00;18.95;;;;;;;22.99;55.03;99844.66;5052568;28;20417;-64
2023/09/02 10:32:11;;;;;;;24.05;17.58;;;;;;;23.07;54.04;99845.31;5053603;28;20043;-66
2023/09/02 10:34:46;;;;;;;26.23;17.15;;;;;;;23.13;54.62;99851.00;5052358;28;20036;-65
2023/09/02 10:37:13;;;;;;;;;;;;;;;23.59;52.98;99852.16;5053417;28;20035;-66
2023/09/02 10:39:50;;;;;;;28.63;17.33;;;;;;;23.39;52.83;99861.19;5052901;28;19915;-66
2023/09/02 10:42:18;;;;;;;27.02;17.58;;;;;;;23.30;53.11;99863.25;5053578;28;20128;-65
2023/09/02 10:44:45;;;;;;;29.65;16.58;;;;;;;23.23;53.11;99854.19;5052606;28;20051;-66
2023/09/02 10:47:11;;;;;;;31.73;20.45;;;;;;;23.37;53.06;99858.63;5052824;28;20040;-67
2023/09/02 10:49:37;;;;;;;25.55;17.13;;;;;;;23.47;52.12;99871.06;5052367;28;20029;-65
2023/09/02 10:52:03;;;;;;;27.02;16.52;;;;;;;23.47;52.17;99844.56;5051873;28;20028;-66
2023/09/02 10:55:03;;;;;;;33.00;16.08;;;;;;;23.80;52.69;99876.56;5053098;28;20351;-67
2023/09/02 10:57:45;;;;;;;27.17;17.42;;;;;;;23.87;52.40;99886.66;5052297;28;20100;-67
2023/09/02 11:00:11;;;;;;;21.55;16.67;;;;;;;23.65;52.34;99876.78;5052343;28;20143;-66
2023/09/02 11:02:41;;;;;;;26.33;16.83;;;;;;;23.56;52.75;99886.22;5052779;28;20178;-66
2023/09/02 11:05:07;;;;;;;25.45;17.13;;;;;;;23.30;53.09;99882.38;5051728;28;20040;-65
2023/09/02 11:07:34;;;;;;;27.23;18.23;;;;;;;23.24;55.17;99885.91;5052294;28;20581;-68
2023/09/02 11:10:01;;;;;;;26.70;18.83;;;;;;;23.27;54.69;99877.34;5051286;28;20064;-66
2023/09/02 11:12:27;;;;;;;23.60;17.60;;;;;;;23.37;54.86;99877.75;5052114;28;20123;-66
2023/09/02 11:15:08;;;;;;;28.02;19.63;;;;;;;23.59;55.27;99877.59;5052623;28;20095;-66
2023/09/02 11:17:35;;;;;;;23.13;18.30;;;;;;;23.45;53.85;99876.72;5052090;28;20021;-66
2023/09/02 11:20:03;;;;;;;27.00;18.65;;;;;;;23.35;54.48;99877.13;5050518;28;20040;-66